Barlborough, United Kingdom
Current Conditions -  °F | °C
As of 8:20 AM on Thursday 29 Jan 2015 (Local Time) from EGCN Reporting Station
Moderate Snow Moderate Snow  
Wind Chill: 25°   Ceiling: 1100
Heat Index: 34°   Visibility: 1.2mi
Dew Point: 32°   Wind: 13mph
Humidity: 93%   Direction: 220°SW
Pressure: 29.03"   Gusts: NA
Location:  53.29°N, 1.29°W
Report Text: EGCN 290820Z 22011KT 2000 SN SCT003 SCT007 BKN011 01/00 Q0983
Loading
Personal Weather Stations






























Interactive Weather Map New forecast layout! Learn more

10-Day Weather Forecast

Advertisements
Track Severe Weather on mobile